This is the latest recevied weather packets stored in our database for station/object OH6GPB-4. If no packets are shown the sender has not sent any weather packets the latest 10 day(s).
| Time | Temp. | Humidity | Pressure | Rain* | Wind** | Luminosity | Snow |
|---|---|---|---|---|---|---|---|
| 1777627041 | 12.78° C | 50% | 1014.9 hPa | 0 mm | - | 666 W/m² | - |
| 1777625253 | 13.33° C | 49% | 1015.3 hPa | 0 mm | - | 638 W/m² | - |
| 1777623460 | 12.22° C | 53% | 1015.5 hPa | 0 mm | - | 605 W/m² | - |
| 1777621656 | 11.67° C | 55% | 1015.8 hPa | 0 mm | - | 561 W/m² | - |
| 1777619862 | 10.56° C | 59% | 1015.9 hPa | 0 mm | - | 503 W/m² | - |
| 1777618055 | 10° C | 60% | 1016 hPa | 0 mm | - | 399 W/m² | - |
| 1777616255 | 9.44° C | 62% | 1016.1 hPa | 0 mm | - | 341 W/m² | - |
| 1777614449 | 9.44° C | 66% | 1015.9 hPa | 0 mm | - | 369 W/m² | - |
| 1777612650 | 8.33° C | 70% | 1015.9 hPa | 0 mm | - | 258 W/m² | - |
| 1777610850 | 7.22° C | 72% | 1015.9 hPa | 0 mm | - | 54 W/m² | - |
| 1777609058 | 7.22° C | 76% | 1016.1 hPa | 0 mm | - | 58 W/m² | - |
| 1777607246 | 6.11° C | 82% | 1016.3 hPa | 0 mm | - | 32 W/m² | - |
| 1777605442 | 3.89° C | 87% | 1016.4 hPa | 0 mm | - | 28 W/m² | - |
| 1777603649 | 3.89° C | 88% | 1016.8 hPa | 0 mm | - | 18 W/m² | - |
| 1777601842 | 2.78° C | 90% | 1016.9 hPa | 0 mm | - | 5 W/m² | - |
| 1777600056 | 2.78° C | 87% | 1016.9 hPa | 0 mm | - | 0 W/m² | - |
| 1777598247 | 3.33° C | 86% | 1016.9 hPa | 0 mm | - | 0 W/m² | - |
| 1777596444 | 4.44° C | 86% | 1016.9 hPa | 0 mm | - | 0 W/m² | - |
| 1777594645 | 3.89° C | 88% | 1017.2 hPa | 0 mm | - | 0 W/m² | - |
| 1777592842 | 3.33° C | 86% | 1017.4 hPa | 0 mm | - | 0 W/m² | - |
| 1777591057 | 4.44° C | 85% | 1017.4 hPa | 0 mm | - | 0 W/m² | - |
| 1777589244 | 5° C | 83% | 1017.4 hPa | 0 mm | - | 0 W/m² | - |
| 1777587456 | 5.56° C | 82% | 1017.5 hPa | 0 mm | - | 0 W/m² | - |
| 1777585647 | 6.11° C | 81% | 1017.4 hPa | 0 mm | - | 0 W/m² | - |
| 1777583847 | 6.67° C | 79% | 1017.4 hPa | 0 mm | - | 0 W/m² | - |
* Rain latest hour (hover to see other rain measurements)
** Current wind speed in m/s (hover to see current wind gust speed)